TAF Text Data
IDs:
Format:
Raw Decoded Include METAR

Data at: 0220 UTC 29 May 2022

KBNA 282326Z 2900/2924 08004KT P6SM SKC
  FM290900 15003KT 5SM BR SKC
  FM291600 19009G18KT P6SM SKC
  FM292200 18008KT P6SM FEW250